createdAt,value
2019-04-27T00:01:29.432Z,8.10
2019-04-27T00:04:19.037Z,8.10
2019-04-27T00:06:51.273Z,8.10
2019-04-27T00:09:30.634Z,8.00
2019-04-27T00:12:03.551Z,8.00
2019-04-27T00:14:32.930Z,7.90
2019-04-27T00:17:06.527Z,7.90
2019-04-27T00:19:53.718Z,7.80
2019-04-27T00:22:24.649Z,7.80
2019-04-27T00:24:53.733Z,7.80
2019-04-27T00:27:23.454Z,7.80
2019-04-27T00:29:53.566Z,7.70
2019-04-27T00:32:23.157Z,7.70
2019-04-27T00:34:53.275Z,7.70
2019-04-27T00:37:36.190Z,7.60
2019-04-27T00:40:12.988Z,7.60
2019-04-27T00:42:44.356Z,7.60
2019-04-27T00:45:23.312Z,7.60
2019-04-27T00:47:56.435Z,7.60
2019-04-27T00:50:19.091Z,7.60
2019-04-27T00:52:48.256Z,7.60
2019-04-27T00:55:17.271Z,7.60
2019-04-27T00:58:05.891Z,7.60
2019-04-27T01:00:46.548Z,7.60
2019-04-27T01:03:29.356Z,7.50
2019-04-27T01:05:59.331Z,7.50
2019-04-27T01:08:28.374Z,7.40
2019-04-27T01:10:59.229Z,7.40
2019-04-27T01:13:29.454Z,7.30
2019-04-27T01:15:58.589Z,7.30
2019-04-27T01:18:28.489Z,7.20
2019-04-27T01:20:59.099Z,7.20
2019-04-27T01:23:31.924Z,7.10
2019-04-27T01:26:02.567Z,7.10
2019-04-27T01:28:33.392Z,7.00
2019-04-27T01:31:10.094Z,7.00
2019-04-27T01:33:39.273Z,7.00
2019-04-27T01:36:08.918Z,6.90
2019-04-27T01:38:41.044Z,6.90
2019-04-27T01:41:11.602Z,6.90
2019-04-27T01:43:40.693Z,6.80
2019-04-27T01:46:09.750Z,6.80
2019-04-27T01:48:40.411Z,6.80
2019-04-27T01:51:09.475Z,6.80
2019-04-27T01:53:39.095Z,6.80
2019-04-27T01:56:09.198Z,6.80
2019-04-27T01:58:39.257Z,6.70
2019-04-27T02:01:24.703Z,6.80
2019-04-27T02:04:01.027Z,6.80
2019-04-27T02:06:30.196Z,6.80
2019-04-27T02:08:59.595Z,6.90
2019-04-27T02:11:28.938Z,6.90
2019-04-27T02:13:59.432Z,6.90
2019-04-27T02:16:30.642Z,6.90
2019-04-27T02:19:02.810Z,6.90
2019-04-27T02:21:31.991Z,7.00
2019-04-27T02:24:00.948Z,7.00
2019-04-27T02:26:30.071Z,7.10
2019-04-27T02:29:03.768Z,7.10
2019-04-27T02:31:53.138Z,7.20
2019-04-27T02:34:24.104Z,7.30
2019-04-27T02:36:53.281Z,7.30
2019-04-27T02:39:22.380Z,7.30
2019-04-27T02:42:00.523Z,7.40
2019-04-27T02:44:40.661Z,7.40
2019-04-27T02:47:10.637Z,7.40
2019-04-27T02:49:40.543Z,7.40
2019-04-27T02:52:19.846Z,7.40
2019-04-27T02:54:50.678Z,7.40
2019-04-27T02:57:20.293Z,7.30
2019-04-27T02:59:50.270Z,7.20
2019-04-27T03:02:24.324Z,7.10
2019-04-27T03:04:57.492Z,7.10
2019-04-27T03:07:26.492Z,7.00
2019-04-27T03:09:55.585Z,7.00
2019-04-27T03:12:29.545Z,6.90
2019-04-27T03:15:10.389Z,6.90
2019-04-27T03:17:49.872Z,6.80
2019-04-27T03:20:47.568Z,6.80
2019-04-27T03:23:16.980Z,6.80
2019-04-27T03:35:22.943Z,6.60
2019-04-27T03:44:02.688Z,6.40
2019-04-27T03:49:34.578Z,6.30
2019-04-27T03:52:09.913Z,6.30
2019-04-27T03:54:43.976Z,6.20
2019-04-27T03:57:20.374Z,6.20
2019-04-27T04:03:00.549Z,6.00
2019-04-27T04:05:33.367Z,6.00
2019-04-27T04:08:02.731Z,5.90
2019-04-27T04:10:33.682Z,5.90
2019-04-27T04:13:10.893Z,5.90
2019-04-27T04:15:44.251Z,5.80
2019-04-27T04:18:16.100Z,5.80
2019-04-27T04:21:05.241Z,5.80
2019-04-27T04:23:34.221Z,5.80
2019-04-27T04:26:09.759Z,5.80
2019-04-27T04:28:39.667Z,5.80
2019-04-27T04:31:13.442Z,5.80
2019-04-27T04:33:40.291Z,5.90
2019-04-27T04:36:10.082Z,5.90
2019-04-27T04:38:40.199Z,5.90
2019-04-27T04:41:11.052Z,5.90
2019-04-27T04:43:44.439Z,6.00
2019-04-27T04:46:15.088Z,6.00
2019-04-27T04:48:44.170Z,6.00
2019-04-27T04:51:16.274Z,6.00
2019-04-27T04:53:45.571Z,6.10
2019-04-27T04:56:14.601Z,6.00
2019-04-27T04:58:43.564Z,6.00
2019-04-27T05:01:12.712Z,6.10
2019-04-27T05:03:43.306Z,6.10
2019-04-27T05:06:12.261Z,6.20
2019-04-27T05:08:41.186Z,6.20
2019-04-27T05:11:11.702Z,6.30
2019-04-27T05:13:40.666Z,6.40
2019-04-27T05:16:09.896Z,6.50
2019-04-27T05:18:39.364Z,6.60
2019-04-27T05:21:22.057Z,6.70
2019-04-27T05:23:51.172Z,6.70
2019-04-27T05:26:20.784Z,6.80
2019-04-27T05:28:49.895Z,6.90
2019-04-27T05:31:20.569Z,7.00
2019-04-27T05:33:49.586Z,7.10
2019-04-27T05:36:19.269Z,7.20
2019-04-27T05:38:49.855Z,7.30
2019-04-27T05:41:19.059Z,7.40
2019-04-27T05:43:59.293Z,7.50
2019-04-27T05:46:36.678Z,7.60
2019-04-27T05:49:09.373Z,7.80
2019-04-27T05:51:41.713Z,7.90
2019-04-27T05:54:09.148Z,8.00
2019-04-27T05:56:39.056Z,8.10
2019-04-27T05:59:09.133Z,8.30
2019-04-27T06:01:39.938Z,8.40
2019-04-27T06:04:09.294Z,8.60
2019-04-27T06:06:39.825Z,8.70
2019-04-27T06:09:09.593Z,8.80
2019-04-27T06:11:39.993Z,9.00
2019-04-27T06:14:09.788Z,9.20
2019-04-27T06:16:39.462Z,9.30
2019-04-27T06:19:09.567Z,9.40
2019-04-27T06:21:40.099Z,9.60
2019-04-27T06:24:09.449Z,9.80
2019-04-27T06:26:39.953Z,10.00
2019-04-27T06:29:09.480Z,10.30
2019-04-27T06:31:40.943Z,10.40
2019-04-27T06:34:10.001Z,10.70
2019-04-27T06:36:39.057Z,10.90
2019-04-27T06:39:09.764Z,11.10
2019-04-27T06:41:40.033Z,11.30
2019-04-27T06:44:11.286Z,11.40
2019-04-27T06:46:40.540Z,11.60
2019-04-27T06:49:11.044Z,11.70
2019-04-27T06:51:41.334Z,11.90
2019-04-27T06:54:10.461Z,12.00
2019-04-27T06:56:39.565Z,12.10
2019-04-27T06:59:08.860Z,12.20
2019-04-27T07:01:38.960Z,12.20
2019-04-27T07:04:08.817Z,12.30
2019-04-27T07:06:52.765Z,12.40
2019-04-27T07:09:09.855Z,12.50
2019-04-27T07:11:44.019Z,12.70
2019-04-27T07:14:12.985Z,12.80
2019-04-27T07:16:42.019Z,12.90
2019-04-27T07:19:11.094Z,13.00
2019-04-27T07:21:40.239Z,13.20
2019-04-27T07:24:09.347Z,13.30
2019-04-27T07:26:39.134Z,13.50
2019-04-27T07:29:09.581Z,13.60
2019-04-27T07:31:39.999Z,13.70
2019-04-27T07:34:09.548Z,13.70
2019-04-27T07:36:39.287Z,13.70
2019-04-27T07:39:11.225Z,13.70
2019-04-27T07:41:42.679Z,13.70
2019-04-27T07:44:13.362Z,13.80
2019-04-27T07:46:42.319Z,14.00
2019-04-27T07:49:11.302Z,14.20
2019-04-27T07:51:40.286Z,14.50
2019-04-27T07:54:12.404Z,14.80
2019-04-27T07:56:43.537Z,14.90
2019-04-27T07:59:12.491Z,14.90
2019-04-27T08:01:41.458Z,15.00
2019-04-27T08:04:10.473Z,15.00
2019-04-27T08:06:39.437Z,14.90
2019-04-27T08:09:09.365Z,14.90
2019-04-27T08:11:39.103Z,15.00
2019-04-27T08:14:08.836Z,15.00
2019-04-27T08:16:38.789Z,15.00
2019-04-27T08:19:09.939Z,15.10
2019-04-27T08:21:44.599Z,15.00
2019-04-27T08:24:11.092Z,14.90
2019-04-27T08:26:59.360Z,14.90
2019-04-27T08:29:35.844Z,14.90
2019-04-27T08:32:06.600Z,14.90
2019-04-27T08:34:39.719Z,15.00
2019-04-27T08:37:09.261Z,15.40
2019-04-27T08:39:39.642Z,15.60
2019-04-27T08:42:09.570Z,16.00
2019-04-27T08:44:39.745Z,16.30
2019-04-27T08:47:09.563Z,16.50
2019-04-27T08:49:39.397Z,16.60
2019-04-27T08:52:09.938Z,16.40
2019-04-27T08:54:39.429Z,16.30
2019-04-27T08:57:09.760Z,15.90
2019-04-27T08:59:39.283Z,15.50
2019-04-27T09:02:08.838Z,15.20
2019-04-27T09:04:39.454Z,15.00
2019-04-27T09:07:26.562Z,14.90
2019-04-27T09:09:57.315Z,14.70
2019-04-27T09:12:43.683Z,14.50
2019-04-27T09:15:20.198Z,14.30
2019-04-27T09:17:50.869Z,14.10
2019-04-27T09:20:33.328Z,13.90
2019-04-27T09:23:02.397Z,14.00
2019-04-27T09:25:31.362Z,14.00
2019-04-27T09:28:00.348Z,14.20
2019-04-27T09:30:29.738Z,14.30
2019-04-27T09:32:59.194Z,14.30
2019-04-27T09:35:28.750Z,14.10
2019-04-27T09:37:59.063Z,13.80
2019-04-27T09:40:28.072Z,13.60
2019-04-27T09:42:57.371Z,13.60
2019-04-27T09:45:27.043Z,13.50
2019-04-27T09:47:56.411Z,13.50
2019-04-27T09:50:27.992Z,13.50
2019-04-27T09:52:56.245Z,13.60
2019-04-27T09:55:26.338Z,13.60
2019-04-27T09:57:56.925Z,13.60
2019-04-27T10:00:27.796Z,13.60
2019-04-27T10:02:57.023Z,13.60
2019-04-27T10:05:26.453Z,13.60
2019-04-27T10:07:56.953Z,13.50
2019-04-27T10:10:26.731Z,13.50
2019-04-27T10:12:56.798Z,13.40
2019-04-27T10:15:26.645Z,13.40
2019-04-27T10:17:57.623Z,13.60
2019-04-27T10:20:26.493Z,13.60
2019-04-27T10:22:56.411Z,13.60
2019-04-27T10:25:27.448Z,13.50
2019-04-27T10:27:59.469Z,13.50
2019-04-27T10:30:29.435Z,13.30
2019-04-27T10:32:58.470Z,13.20
2019-04-27T10:35:27.678Z,13.00
2019-04-27T10:37:56.594Z,12.90
2019-04-27T10:40:26.358Z,12.80
2019-04-27T10:42:56.606Z,12.70
2019-04-27T10:45:25.650Z,12.60
2019-04-27T10:47:56.184Z,12.60
2019-04-27T10:50:26.545Z,12.60
2019-04-27T10:52:59.354Z,12.40
2019-04-27T10:55:27.585Z,12.40
2019-04-27T10:57:56.507Z,12.40
2019-04-27T11:00:38.927Z,12.40
2019-04-27T11:03:08.014Z,12.30
2019-04-27T11:05:54.681Z,12.30
2019-04-27T11:08:23.845Z,12.30
2019-04-27T11:10:52.951Z,12.20
2019-04-27T11:13:21.883Z,12.40
2019-04-27T11:15:51.002Z,12.50
2019-04-27T11:18:20.004Z,12.50
2019-04-27T11:20:48.981Z,12.60
2019-04-27T11:23:17.932Z,12.80
2019-04-27T11:25:47.042Z,13.00
2019-04-27T11:28:15.977Z,13.00
2019-04-27T11:30:45.040Z,12.90
2019-04-27T11:33:15.712Z,12.80
2019-04-27T11:35:46.940Z,12.80
2019-04-27T11:38:16.736Z,12.80
2019-04-27T11:40:46.691Z,12.80
2019-04-27T11:43:16.130Z,12.80
2019-04-27T11:45:45.736Z,12.80
2019-04-27T11:48:16.126Z,12.80
2019-04-27T11:50:45.883Z,12.80
2019-04-27T11:53:22.792Z,12.80
2019-04-27T11:55:46.145Z,12.60
2019-04-27T11:58:16.469Z,12.60
2019-04-27T12:00:45.659Z,12.70
2019-04-27T12:03:16.570Z,12.80
2019-04-27T12:05:46.466Z,12.90
2019-04-27T12:08:16.178Z,13.10
2019-04-27T12:10:46.385Z,13.30
2019-04-27T12:13:17.182Z,13.50
2019-04-27T12:15:47.607Z,13.50
2019-04-27T12:18:16.584Z,13.40
2019-04-27T12:20:45.866Z,13.30
2019-04-27T12:23:16.531Z,13.40
2019-04-27T12:25:46.163Z,13.30
2019-04-27T12:28:23.064Z,13.30
2019-04-27T12:31:08.644Z,13.20
2019-04-27T12:33:36.096Z,13.20
2019-04-27T12:36:06.755Z,13.10
2019-04-27T12:38:36.552Z,13.00
2019-04-27T12:41:06.822Z,12.80
2019-04-27T12:43:37.423Z,12.80
2019-04-27T12:46:06.612Z,12.90
2019-04-27T12:48:37.552Z,12.90
2019-04-27T12:51:06.695Z,13.10
2019-04-27T12:53:50.071Z,13.10
2019-04-27T12:56:09.749Z,13.00
2019-04-27T12:58:52.533Z,12.90
2019-04-27T13:01:25.930Z,12.80
2019-04-27T13:03:58.482Z,12.20
2019-04-27T13:06:25.601Z,11.50
2019-04-27T13:08:55.813Z,11.00
2019-04-27T13:11:26.520Z,10.50
2019-04-27T13:13:57.652Z,10.20
2019-04-27T13:16:28.848Z,10.00
2019-04-27T13:18:57.651Z,9.90
2019-04-27T13:21:26.729Z,9.80
2019-04-27T13:24:04.258Z,9.70
2019-04-27T13:26:26.499Z,9.60
2019-04-27T13:28:55.444Z,9.60
2019-04-27T13:31:25.751Z,9.50
2019-04-27T13:33:55.785Z,9.40
2019-04-27T13:36:26.591Z,9.50
2019-04-27T13:38:56.054Z,9.50
2019-04-27T13:41:32.603Z,9.60
2019-04-27T13:43:57.898Z,9.60
2019-04-27T13:46:31.316Z,9.70
2019-04-27T13:49:17.938Z,9.70
2019-04-27T13:51:48.599Z,9.60
2019-04-27T13:54:25.541Z,9.50
2019-04-27T13:56:48.249Z,9.30
2019-04-27T13:59:17.260Z,9.20
2019-04-27T14:01:46.200Z,9.10
2019-04-27T14:04:15.300Z,9.20
2019-04-27T14:06:44.242Z,9.30
2019-04-27T14:09:13.217Z,9.30
2019-04-27T14:11:42.277Z,9.30
2019-04-27T14:14:11.266Z,9.30
2019-04-27T14:16:40.225Z,9.30
2019-04-27T14:19:11.006Z,9.40
2019-04-27T14:21:40.011Z,9.40
2019-04-27T14:24:09.091Z,9.40
2019-04-27T14:26:38.582Z,9.50
2019-04-27T14:29:08.755Z,9.50
2019-04-27T14:31:39.576Z,9.50
2019-04-27T14:34:09.198Z,9.50
2019-04-27T14:36:40.475Z,9.60
2019-04-27T14:39:10.798Z,9.70
2019-04-27T14:41:40.644Z,9.70
2019-04-27T14:44:10.690Z,9.80
2019-04-27T14:46:41.192Z,9.90
2019-04-27T14:49:10.109Z,9.90
2019-04-27T14:51:40.135Z,9.90
2019-04-27T14:54:09.381Z,9.90
2019-04-27T14:56:38.764Z,9.90
2019-04-27T14:59:08.043Z,9.80
2019-04-27T15:01:39.441Z,9.80
2019-04-27T15:04:07.747Z,9.70
2019-04-27T15:06:36.700Z,9.80
2019-04-27T15:09:07.068Z,9.80
2019-04-27T15:11:36.228Z,9.90
2019-04-27T15:14:05.284Z,10.00
2019-04-27T15:16:37.802Z,9.90
2019-04-27T15:19:13.189Z,9.90
2019-04-27T15:21:55.724Z,9.90
2019-04-27T15:24:13.779Z,9.90
2019-04-27T15:26:42.816Z,9.90
2019-04-27T15:29:13.327Z,9.90
2019-04-27T15:31:55.777Z,9.80
2019-04-27T15:34:40.340Z,9.70
2019-04-27T15:37:14.530Z,9.60
2019-04-27T15:39:45.081Z,9.60
2019-04-27T15:42:24.546Z,9.60
2019-04-27T15:44:53.495Z,9.60
2019-04-27T15:47:22.914Z,9.60
2019-04-27T15:49:54.599Z,9.50
2019-04-27T15:52:25.556Z,9.50
2019-04-27T15:54:53.158Z,9.60
2019-04-27T15:57:22.078Z,9.60
2019-04-27T15:59:51.044Z,9.80
2019-04-27T16:02:19.978Z,9.80
2019-04-27T16:04:53.162Z,9.80
2019-04-27T16:07:24.653Z,9.90
2019-04-27T16:09:50.380Z,9.80
2019-04-27T16:12:19.321Z,9.90
2019-04-27T16:14:48.294Z,9.80
2019-04-27T16:17:18.070Z,9.80
2019-04-27T16:19:50.273Z,9.90
2019-04-27T16:22:18.425Z,10.00
2019-04-27T16:24:49.504Z,10.20
2019-04-27T16:27:19.993Z,10.20
2019-04-27T16:29:49.268Z,10.30
2019-04-27T16:32:18.226Z,10.20
2019-04-27T16:34:48.036Z,10.30
2019-04-27T16:37:22.342Z,10.40
2019-04-27T16:39:49.601Z,10.50
2019-04-27T16:42:18.718Z,10.70
2019-04-27T16:44:49.558Z,10.70
2019-04-27T16:47:24.115Z,10.80
2019-04-27T16:49:49.308Z,10.80
2019-04-27T16:52:19.291Z,10.70
2019-04-27T16:54:56.970Z,10.70
2019-04-27T16:57:20.817Z,10.70
2019-04-27T16:59:54.828Z,10.70
2019-04-27T17:02:23.736Z,10.70
2019-04-27T17:04:55.355Z,10.80
2019-04-27T17:07:22.107Z,10.80
2019-04-27T17:09:51.151Z,10.90
2019-04-27T17:12:23.744Z,11.00
2019-04-27T17:14:52.538Z,11.00
2019-04-27T17:17:42.701Z,10.90
2019-04-27T17:20:12.990Z,10.80
2019-04-27T17:22:40.548Z,10.70
2019-04-27T17:25:09.752Z,10.60
2019-04-27T17:27:43.245Z,10.50
2019-04-27T17:30:12.533Z,10.50
2019-04-27T17:32:43.190Z,10.50
2019-04-27T17:35:14.929Z,10.40
2019-04-27T17:37:42.964Z,10.20
2019-04-27T17:40:15.161Z,9.90
2019-04-27T17:42:42.980Z,9.60
2019-04-27T17:45:12.419Z,9.50
2019-04-27T17:47:41.418Z,9.30
2019-04-27T17:50:10.630Z,9.20
2019-04-27T17:52:39.827Z,9.10
2019-04-27T17:55:08.946Z,9.00
2019-04-27T17:57:39.155Z,8.90
2019-04-27T18:00:10.011Z,8.90
2019-04-27T18:02:42.450Z,8.90
2019-04-27T18:05:13.578Z,8.80
2019-04-27T18:07:44.214Z,8.80
2019-04-27T18:10:13.425Z,8.80
2019-04-27T18:12:44.452Z,8.70
2019-04-27T18:15:14.525Z,8.70
2019-04-27T18:17:50.040Z,8.60
2019-04-27T18:20:20.835Z,8.60
2019-04-27T18:22:54.494Z,8.60
2019-04-27T18:25:23.427Z,8.50
2019-04-27T18:27:54.098Z,8.50
2019-04-27T18:30:28.845Z,8.40
2019-04-27T18:33:02.022Z,8.40
2019-04-27T18:35:29.662Z,8.40
2019-04-27T18:38:01.658Z,8.30
2019-04-27T18:40:32.065Z,8.20
2019-04-27T18:43:01.920Z,8.10
2019-04-27T18:45:30.873Z,8.10
2019-04-27T18:48:01.474Z,8.10
2019-04-27T18:50:52.045Z,8.00
2019-04-27T18:53:24.216Z,8.00
2019-04-27T18:55:57.620Z,8.00
2019-04-27T18:58:21.936Z,7.90
2019-04-27T19:00:50.870Z,8.00
2019-04-27T19:03:19.918Z,7.90
2019-04-27T19:05:48.950Z,7.90
2019-04-27T19:08:19.908Z,7.90
2019-04-27T19:10:49.119Z,7.80
2019-04-27T19:13:19.168Z,7.80
2019-04-27T19:15:48.354Z,7.70
2019-04-27T19:18:18.861Z,7.70
2019-04-27T19:20:48.287Z,7.70
2019-04-27T19:23:17.355Z,7.80
2019-04-27T19:25:48.286Z,7.80
2019-04-27T19:28:28.280Z,7.80
2019-04-27T19:31:08.189Z,7.80
2019-04-27T19:33:36.924Z,7.80
2019-04-27T19:36:06.068Z,7.80
2019-04-27T19:38:35.037Z,7.70
2019-04-27T19:41:04.147Z,7.70
2019-04-27T19:43:33.172Z,7.70
2019-04-27T19:46:02.188Z,7.70
2019-04-27T19:48:31.111Z,7.70
2019-04-27T19:51:00.273Z,7.70
2019-04-27T19:53:29.259Z,7.60
2019-04-27T19:56:01.223Z,7.70
2019-04-27T19:58:33.027Z,7.60
2019-04-27T20:01:12.023Z,7.60
2019-04-27T20:03:39.034Z,7.60
2019-04-27T20:06:08.251Z,7.60
2019-04-27T20:08:38.833Z,7.70
2019-04-27T20:11:07.882Z,7.70
2019-04-27T20:13:36.828Z,7.70
2019-04-27T20:16:05.793Z,7.80
2019-04-27T20:18:34.802Z,7.90
2019-04-27T20:21:03.897Z,7.90
2019-04-27T20:23:32.843Z,7.90
2019-04-27T20:26:02.164Z,7.90
2019-04-27T20:28:31.412Z,8.00
2019-04-27T20:31:00.543Z,7.90
2019-04-27T20:33:31.097Z,7.90
2019-04-27T20:36:01.042Z,7.90
2019-04-27T20:38:31.694Z,7.90
2019-04-27T20:41:01.349Z,7.80
2019-04-27T20:43:31.827Z,7.90
2019-04-27T20:46:01.007Z,7.80
2019-04-27T20:48:31.298Z,7.80
2019-04-27T20:51:01.592Z,7.80
2019-04-27T20:53:32.195Z,7.80
2019-04-27T20:56:01.191Z,7.80
2019-04-27T20:58:31.101Z,7.80
2019-04-27T21:01:01.686Z,7.90
2019-04-27T21:03:35.484Z,7.90
2019-04-27T21:06:06.188Z,7.80
2019-04-27T21:08:41.142Z,7.90
2019-04-27T21:11:11.873Z,7.80
2019-04-27T21:13:40.902Z,7.80
2019-04-27T21:16:10.934Z,7.80
2019-04-27T21:18:41.978Z,7.90
2019-04-27T21:21:11.918Z,7.90
2019-04-27T21:23:41.563Z,7.90
2019-04-27T21:26:10.624Z,7.90
2019-04-27T21:28:41.538Z,7.80
2019-04-27T21:31:12.479Z,7.90
2019-04-27T21:33:40.987Z,7.90
2019-04-27T21:36:11.670Z,7.90
2019-04-27T21:38:42.676Z,7.90
2019-04-27T21:41:11.483Z,7.90
2019-04-27T21:43:42.106Z,7.90
2019-04-27T21:46:11.133Z,7.90
2019-04-27T21:48:41.531Z,7.80
2019-04-27T21:51:11.858Z,7.80
2019-04-27T21:53:58.700Z,7.80
2019-04-27T21:56:27.704Z,7.70
2019-04-27T21:58:57.689Z,7.70
2019-04-27T22:01:31.915Z,7.70
2019-04-27T22:04:01.218Z,7.70
2019-04-27T22:06:30.215Z,7.70
2019-04-27T22:09:01.170Z,7.60
2019-04-27T22:11:31.778Z,7.60
2019-04-27T22:14:01.312Z,7.60
2019-04-27T22:16:31.483Z,7.60
2019-04-27T22:19:01.934Z,7.60
2019-04-27T22:21:31.655Z,7.50
2019-04-27T22:24:05.170Z,7.50
2019-04-27T22:26:34.159Z,7.50
2019-04-27T22:29:03.123Z,7.50
2019-04-27T22:31:32.051Z,7.50
2019-04-27T22:34:01.853Z,7.50
2019-04-27T22:36:30.907Z,7.50
2019-04-27T22:39:01.639Z,7.50
2019-04-27T22:41:32.266Z,7.50
2019-04-27T22:44:11.608Z,7.50
2019-04-27T22:46:44.923Z,7.50
2019-04-27T22:49:13.880Z,7.50
2019-04-27T22:51:43.122Z,7.60
2019-04-27T22:54:12.220Z,7.60
2019-04-27T22:56:42.780Z,7.50
2019-04-27T22:59:13.427Z,7.60
2019-04-27T23:02:01.463Z,7.60
2019-04-27T23:04:41.350Z,7.60
2019-04-27T23:07:11.074Z,7.60
2019-04-27T23:09:40.744Z,7.60
2019-04-27T23:12:11.955Z,7.60
2019-04-27T23:14:41.471Z,7.60
2019-04-27T23:17:23.976Z,7.60
2019-04-27T23:19:52.978Z,7.60
2019-04-27T23:22:22.003Z,7.60
2019-04-27T23:24:51.831Z,7.60
2019-04-27T23:27:21.583Z,7.60
2019-04-27T23:29:51.442Z,7.60
2019-04-27T23:32:34.133Z,7.60
2019-04-27T23:35:03.194Z,7.60
2019-04-27T23:37:32.141Z,7.60
2019-04-27T23:40:02.936Z,7.60
2019-04-27T23:42:31.705Z,7.60
2019-04-27T23:45:00.809Z,7.60
2019-04-27T23:47:29.758Z,7.60
2019-04-27T23:50:00.411Z,7.60
2019-04-27T23:52:47.365Z,7.60
2019-04-27T23:55:16.799Z,7.60
2019-04-27T23:57:45.783Z,7.60
